createdAt,value
2022-11-27T00:12:56.618Z,101132.75
2022-11-27T00:13:59.529Z,101136.17
2022-11-27T00:15:02.844Z,101139.66
2022-11-27T00:16:05.497Z,101129.27
2022-11-27T00:17:07.522Z,101127.53
2022-11-27T00:18:09.382Z,101128.42
2022-11-27T00:19:11.978Z,101124.09
2022-11-27T00:20:14.137Z,101132.75
2022-11-27T00:21:19.667Z,101131.06
2022-11-27T00:22:21.593Z,101130.17
2022-11-27T00:23:23.544Z,101131.92
2022-11-27T00:24:25.442Z,101132.78
2022-11-27T00:25:27.820Z,101132.75
2022-11-27T00:26:35.937Z,101130.17
2022-11-27T00:27:34.721Z,101135.36
2022-11-27T00:28:37.638Z,101140.59
2022-11-27T00:29:39.522Z,101139.72
2022-11-27T00:30:41.691Z,101136.25
2022-11-27T00:31:43.689Z,101131.03
2022-11-27T00:32:45.773Z,101137.95
2022-11-27T00:33:48.516Z,101124.97
2022-11-27T00:34:50.664Z,101129.31
2022-11-27T00:35:52.513Z,101131.92
2022-11-27T00:36:54.493Z,101128.45
2022-11-27T00:37:56.381Z,101125.86
2022-11-27T00:38:59.259Z,101132.81
2022-11-27T00:40:01.840Z,101126.75
2022-11-27T00:41:10.212Z,101127.63
2022-11-27T00:42:12.137Z,101131.09
2022-11-27T00:43:13.988Z,101122.43
2022-11-27T00:44:16.147Z,101128.52
2022-11-27T00:45:18.023Z,101127.63
2022-11-27T00:46:29.497Z,101126.75
2022-11-27T00:47:31.681Z,101131.96
2022-11-27T00:48:34.358Z,101123.28
2022-11-27T00:49:36.222Z,101126.74
2022-11-27T00:50:38.181Z,101128.50
2022-11-27T00:51:40.044Z,101125.89
2022-11-27T00:52:42.090Z,101130.20
2022-11-27T00:53:45.174Z,101119.84
2022-11-27T00:54:47.137Z,101125.03
2022-11-27T00:55:49.083Z,101125.02
2022-11-27T00:56:51.042Z,101122.42
2022-11-27T00:57:53.057Z,101129.39
2022-11-27T00:58:56.016Z,101119.84
2022-11-27T00:59:57.875Z,101128.50
2022-11-27T01:01:03.083Z,101118.92
2022-11-27T01:02:05.087Z,101117.21
2022-11-27T01:03:09.001Z,101119.83
2022-11-27T01:04:13.876Z,101109.41
2022-11-27T01:05:15.959Z,101121.53
2022-11-27T01:06:21.150Z,101115.48
2022-11-27T01:07:23.220Z,101111.99
2022-11-27T01:08:25.141Z,101085.95
2022-11-27T01:09:27.018Z,101117.23
2022-11-27T01:10:29.408Z,101112.89
2022-11-27T01:11:33.377Z,101106.80
2022-11-27T01:12:35.264Z,101114.60
2022-11-27T01:13:37.194Z,101114.63
2022-11-27T01:14:39.413Z,101107.67
2022-11-27T01:15:42.163Z,101110.29
2022-11-27T01:16:44.624Z,101105.95
2022-11-27T01:17:46.494Z,101110.30
2022-11-27T01:18:50.096Z,101122.43
2022-11-27T01:19:52.012Z,101109.42
2022-11-27T01:20:54.886Z,101118.09
2022-11-27T01:21:56.828Z,101115.50
2022-11-27T01:22:58.673Z,101115.50
2022-11-27T01:24:02.363Z,101118.95
2022-11-27T01:25:05.514Z,101118.11
2022-11-27T01:26:10.059Z,101118.94
2022-11-27T01:27:11.946Z,101120.73
2022-11-27T01:28:16.255Z,101130.26
2022-11-27T01:29:18.166Z,101118.09
2022-11-27T01:30:20.211Z,101120.71
2022-11-27T01:31:26.762Z,101123.28
2022-11-27T01:32:28.746Z,101119.84
2022-11-27T01:33:30.596Z,101124.17
2022-11-27T01:34:32.451Z,101125.05
2022-11-27T01:35:34.304Z,101125.91
2022-11-27T01:36:36.373Z,101121.55
2022-11-27T01:37:38.927Z,101123.31
2022-11-27T01:38:41.611Z,101129.39
2022-11-27T01:39:43.461Z,101125.03
2022-11-27T01:40:45.453Z,101127.66
2022-11-27T01:41:48.409Z,101118.09
2022-11-27T01:42:52.381Z,101123.30
2022-11-27T01:44:00.126Z,101122.44
2022-11-27T01:45:02.425Z,101116.36
2022-11-27T01:46:07.262Z,101117.22
2022-11-27T01:47:13.226Z,101125.91
2022-11-27T01:48:15.965Z,101118.95
2022-11-27T01:49:27.443Z,101118.10
2022-11-27T01:50:36.384Z,101124.16
2022-11-27T01:51:48.080Z,101117.20
2022-11-27T01:52:54.805Z,101118.10
2022-11-27T01:53:57.220Z,101122.44
2022-11-27T01:55:05.645Z,101125.05
2022-11-27T01:56:09.347Z,101118.09
2022-11-27T01:57:17.696Z,101127.66
2022-11-27T01:58:23.924Z,101118.98
2022-11-27T01:59:25.958Z,101119.83
2022-11-27T02:00:29.056Z,101118.97
2022-11-27T02:01:31.268Z,101118.10
2022-11-27T02:02:33.239Z,101113.77
2022-11-27T02:03:35.615Z,101120.71
2022-11-27T02:04:37.793Z,101122.43
2022-11-27T02:05:39.820Z,101119.82
2022-11-27T02:06:41.778Z,101119.81
2022-11-27T02:07:45.245Z,101120.73
2022-11-27T02:08:47.635Z,101122.43
2022-11-27T02:09:49.812Z,101117.22
2022-11-27T02:11:01.604Z,101116.36
2022-11-27T02:12:19.371Z,101119.83
2022-11-27T02:13:39.911Z,101119.83
2022-11-27T06:35:34.149Z,101181.29
2022-11-27T06:37:47.837Z,101189.11
2022-11-27T06:38:50.747Z,101177.75
2022-11-27T06:39:52.626Z,101183.86
2022-11-27T06:40:54.591Z,101186.48
2022-11-27T06:41:57.223Z,101188.20
2022-11-27T06:42:59.217Z,101181.29
2022-11-27T06:44:01.628Z,101186.50
2022-11-27T06:45:04.534Z,101176.89
2022-11-27T06:46:09.112Z,101184.70
2022-11-27T06:47:11.145Z,101188.23
2022-11-27T06:48:13.060Z,101185.61
2022-11-27T06:49:15.091Z,101183.88
2022-11-27T06:50:17.138Z,101189.09
2022-11-27T06:51:22.325Z,101190.83
2022-11-27T06:52:24.227Z,101181.34
2022-11-27T06:53:26.159Z,101186.55
2022-11-27T06:54:28.116Z,101183.06
2022-11-27T06:55:29.968Z,101195.24
2022-11-27T06:56:32.291Z,101181.34
2022-11-27T06:57:34.147Z,101181.33
2022-11-27T06:58:37.353Z,101187.41
2022-11-27T06:59:39.247Z,101188.31
2022-11-27T07:00:41.839Z,101188.33
2022-11-27T07:01:44.524Z,101184.83
2022-11-27T07:02:46.497Z,101182.23
2022-11-27T07:03:49.590Z,101183.13
2022-11-27T07:04:51.470Z,101184.00
2022-11-27T07:05:54.033Z,101184.02
2022-11-27T07:06:56.576Z,101182.28
2022-11-27T07:07:58.493Z,101185.73
2022-11-27T07:09:00.793Z,101197.02
2022-11-27T07:10:03.773Z,101184.00
2022-11-27T07:11:09.365Z,101189.23
2022-11-27T07:12:11.299Z,101186.66
2022-11-27T07:13:13.484Z,101186.64
2022-11-27T07:14:15.551Z,101186.66
2022-11-27T07:15:17.418Z,101195.34
2022-11-27T07:16:19.495Z,101184.90
2022-11-27T07:17:21.470Z,101183.17
2022-11-27T07:18:23.348Z,101190.13
2022-11-27T07:19:25.212Z,101187.53
2022-11-27T07:20:27.270Z,101190.16
2022-11-27T07:21:30.466Z,101187.53
2022-11-27T07:22:32.771Z,101191.02
2022-11-27T07:23:35.805Z,101192.78
2022-11-27T07:24:37.979Z,101196.23
2022-11-27T07:25:40.125Z,101190.16
2022-11-27T07:26:42.402Z,101191.05
2022-11-27T07:27:44.621Z,101183.26
2022-11-27T07:28:47.917Z,101176.27
2022-11-27T07:29:49.821Z,101188.38
2022-11-27T07:30:56.166Z,101188.41
2022-11-27T07:31:58.093Z,101181.47
2022-11-27T07:33:01.873Z,101184.09
2022-11-27T07:34:06.919Z,101182.36
2022-11-27T07:35:10.924Z,101185.86
2022-11-27T07:36:21.349Z,101187.59
2022-11-27T07:37:23.311Z,101191.95
2022-11-27T07:38:25.476Z,101190.20
2022-11-27T07:39:54.001Z,101186.72
2022-11-27T07:40:31.565Z,101191.09
2022-11-27T07:41:34.257Z,101192.82
2022-11-27T07:42:38.794Z,101191.95
2022-11-27T07:43:41.955Z,101183.26
2022-11-27T07:44:44.371Z,101186.77
2022-11-27T07:45:46.286Z,101181.55
2022-11-27T07:46:48.432Z,101183.27
2022-11-27T07:47:50.399Z,101188.48
2022-11-27T07:48:52.252Z,101190.23
2022-11-27T07:49:54.139Z,101190.23
2022-11-27T07:50:56.242Z,101195.46
2022-11-27T07:51:58.402Z,101190.25
2022-11-27T07:53:00.299Z,101187.64
2022-11-27T07:54:02.233Z,101193.70
2022-11-27T07:55:05.139Z,101198.07
2022-11-27T07:56:11.008Z,101194.58
2022-11-27T07:57:13.012Z,101199.80
2022-11-27T07:58:15.980Z,101189.36
2022-11-27T07:59:20.645Z,101197.20
2022-11-27T08:00:22.805Z,101195.48
2022-11-27T08:01:24.796Z,101203.30
2022-11-27T08:02:26.855Z,101199.81
2022-11-27T08:03:28.709Z,101196.36
2022-11-27T08:04:30.892Z,101197.22
2022-11-27T08:05:34.142Z,101195.46
2022-11-27T08:06:36.117Z,101193.73
2022-11-27T08:07:38.053Z,101195.47
2022-11-27T08:08:40.101Z,101195.48
2022-11-27T08:09:41.967Z,101191.12
2022-11-27T08:10:43.948Z,101190.26
2022-11-27T08:11:45.833Z,101192.86
2022-11-27T08:12:48.136Z,101194.61
2022-11-27T08:13:52.477Z,101198.08
2022-11-27T08:14:54.400Z,101196.32
2022-11-27T08:15:58.703Z,101200.67
2022-11-27T08:17:00.949Z,101191.08
2022-11-27T08:18:03.201Z,101191.98
2022-11-27T08:19:05.245Z,101193.70
2022-11-27T08:20:07.659Z,101197.20
2022-11-27T08:21:09.527Z,101197.20
2022-11-27T08:22:15.196Z,101195.47
2022-11-27T08:23:17.381Z,101197.22
2022-11-27T08:24:19.291Z,101198.08
2022-11-27T08:25:21.158Z,101198.08
2022-11-27T08:26:23.222Z,101202.42
2022-11-27T08:27:25.066Z,101195.45
2022-11-27T08:28:27.000Z,101195.47
2022-11-27T08:29:33.799Z,101198.08
2022-11-27T08:30:32.760Z,101198.92
2022-11-27T08:31:34.692Z,101202.42
2022-11-27T08:32:42.963Z,101197.22
2022-11-27T08:33:45.817Z,101198.97
2022-11-27T08:34:47.693Z,101196.36
2022-11-27T08:35:52.059Z,101198.95
2022-11-27T08:36:55.163Z,101199.82
2022-11-27T08:37:57.058Z,101191.95
2022-11-27T08:38:59.083Z,101196.33
2022-11-27T08:40:01.587Z,101196.32
2022-11-27T08:41:06.652Z,101193.67
2022-11-27T08:42:08.698Z,101198.03
2022-11-27T08:43:11.806Z,101184.14
2022-11-27T08:44:13.878Z,101191.98
2022-11-27T08:45:15.814Z,101190.27
2022-11-27T08:46:18.000Z,101194.59
2022-11-27T08:47:20.009Z,101196.33
2022-11-27T08:48:22.902Z,101190.27
2022-11-27T08:49:24.767Z,101197.20
2022-11-27T08:50:26.730Z,101197.20
2022-11-27T08:51:28.732Z,101188.48
2022-11-27T08:52:31.720Z,101188.51
2022-11-27T08:53:34.107Z,101195.45
2022-11-27T08:54:36.111Z,101196.36
2022-11-27T08:55:38.076Z,101198.97
2022-11-27T08:56:40.028Z,101197.22
2022-11-27T08:57:42.134Z,101198.09
2022-11-27T08:58:45.030Z,101191.97
2022-11-27T08:59:46.914Z,101191.95
2022-11-27T09:00:49.048Z,101193.72
2022-11-27T09:01:51.302Z,101193.67
2022-11-27T09:02:53.261Z,101190.22
2022-11-27T09:03:57.069Z,101191.97
2022-11-27T09:05:00.608Z,101183.30
2022-11-27T09:06:08.809Z,101187.66
2022-11-27T09:07:10.983Z,101187.66
2022-11-27T09:08:12.885Z,101194.61
2022-11-27T09:09:14.878Z,101192.01
2022-11-27T09:10:17.563Z,101195.48
2022-11-27T09:11:20.246Z,101191.12
2022-11-27T09:12:22.336Z,101190.27
2022-11-27T09:13:24.373Z,101185.91
2022-11-27T09:14:26.294Z,101189.41
2022-11-27T09:15:28.151Z,101181.59
2022-11-27T09:16:31.518Z,101182.45
2022-11-27T09:17:33.697Z,101186.80
2022-11-27T09:18:36.760Z,101185.05
2022-11-27T09:19:38.807Z,101188.53
2022-11-27T09:20:41.011Z,101182.45
2022-11-27T09:21:43.051Z,101187.66
2022-11-27T09:22:44.922Z,101185.03
2022-11-27T09:23:47.112Z,101184.17
2022-11-27T09:24:49.093Z,101191.11
2022-11-27T09:25:50.944Z,101185.92
2022-11-27T09:26:52.953Z,101188.53
2022-11-27T09:27:54.864Z,101184.19
2022-11-27T09:28:58.199Z,101187.66
2022-11-27T09:30:00.076Z,101194.62
2022-11-27T09:31:03.988Z,101185.92
2022-11-27T09:32:06.130Z,101191.14
2022-11-27T09:33:08.253Z,101189.40
2022-11-27T09:34:10.252Z,101185.03
2022-11-27T09:35:12.219Z,101185.05
2022-11-27T09:36:20.578Z,101192.02
2022-11-27T09:37:22.729Z,101186.80
2022-11-27T09:38:24.621Z,101188.52
2022-11-27T09:39:28.877Z,101192.00
2022-11-27T09:40:30.890Z,101192.86
2022-11-27T09:41:45.686Z,101191.15
2022-11-27T09:43:00.722Z,101186.80
2022-11-27T09:44:07.425Z,101184.20
2022-11-27T09:45:14.879Z,101193.73
2022-11-27T09:46:31.355Z,101193.76
2022-11-27T09:47:41.748Z,101193.76
2022-11-27T09:48:48.992Z,101188.52
2022-11-27T09:50:01.390Z,101188.55
2022-11-27T09:51:13.320Z,101186.75
2022-11-27T09:52:25.468Z,101185.03
2022-11-27T09:53:33.846Z,101188.50
2022-11-27T09:54:40.069Z,101192.00
2022-11-27T09:55:46.174Z,101183.33
2022-11-27T09:56:52.064Z,101187.64
2022-11-27T09:59:09.381Z,101177.23
2022-11-27T10:00:15.358Z,101178.08
2022-11-27T10:01:21.047Z,101183.32
2022-11-27T10:02:29.998Z,101180.70
2022-11-27T10:03:32.615Z,101179.81
2022-11-27T10:04:57.832Z,101183.30
2022-11-27T10:05:50.984Z,101183.30
2022-11-27T10:07:14.145Z,101180.71
2022-11-27T10:08:28.732Z,101186.77
2022-11-27T10:09:43.708Z,101180.68
2022-11-27T10:11:13.842Z,101178.09
2022-11-27T10:12:22.596Z,101181.53
2022-11-27T10:13:28.376Z,101185.03
2022-11-27T10:14:56.967Z,101185.03
2022-11-27T10:16:02.693Z,101177.21
2022-11-27T10:17:27.037Z,101180.72
2022-11-27T10:18:35.769Z,101178.98
2022-11-27T10:19:49.961Z,101179.83
2022-11-27T10:20:58.824Z,101177.23
2022-11-27T10:22:11.025Z,101178.98
2022-11-27T10:23:42.508Z,101182.44
2022-11-27T10:24:56.985Z,101182.45
2022-11-27T10:26:02.676Z,101180.69
2022-11-27T10:28:33.960Z,101175.48
2022-11-27T14:11:18.570Z,101161.38
2022-11-27T14:12:27.768Z,101170.89
2022-11-27T14:13:36.266Z,101175.22
2022-11-27T14:14:41.202Z,101167.42
2022-11-27T14:15:45.783Z,101181.31
2022-11-27T14:17:02.301Z,101178.71
2022-11-27T14:18:19.683Z,101171.78
2022-11-27T14:20:51.107Z,101172.72
2022-11-27T14:21:53.553Z,101171.80
2022-11-27T14:23:14.260Z,101172.67
2022-11-27T14:24:03.050Z,101177.81
2022-11-27T14:25:20.543Z,101184.82
2022-11-27T14:26:24.806Z,101175.27
2022-11-27T14:27:30.499Z,101177.88
2022-11-27T14:28:36.885Z,101179.62
2022-11-27T14:29:39.046Z,101178.77
2022-11-27T14:30:47.674Z,101177.03
2022-11-27T14:31:59.499Z,101177.93
2022-11-27T14:33:07.428Z,101177.91
2022-11-27T14:35:36.700Z,101184.90
2022-11-27T14:36:38.675Z,101181.38
2022-11-27T14:37:40.550Z,101181.40
2022-11-27T14:38:45.832Z,101177.93
2022-11-27T14:39:47.773Z,101178.77
2022-11-27T14:40:51.806Z,101174.40
2022-11-27T14:42:02.363Z,101173.53
2022-11-27T14:43:10.149Z,101171.80
2022-11-27T14:44:14.827Z,101170.91
2022-11-27T14:45:20.314Z,101172.67
2022-11-27T14:46:22.392Z,101179.62
2022-11-27T14:47:26.794Z,101176.13
2022-11-27T14:48:32.448Z,101180.50
2022-11-27T14:49:35.614Z,101181.38
2022-11-27T14:50:37.584Z,101184.02
2022-11-27T14:51:39.593Z,101181.40
2022-11-27T14:52:44.354Z,101184.02
2022-11-27T14:53:48.982Z,101183.13
2022-11-27T14:54:52.424Z,101184.86
2022-11-27T14:55:57.243Z,101184.91
2022-11-27T14:56:59.731Z,101189.23
2022-11-27T14:58:02.133Z,101185.76
2022-11-27T14:59:04.088Z,101188.36
2022-11-27T15:00:22.340Z,101193.58
2022-11-27T15:01:27.455Z,101187.52
2022-11-27T15:02:29.696Z,101187.52
2022-11-27T15:03:33.529Z,101186.66
2022-11-27T15:04:38.458Z,101177.96
2022-11-27T15:05:42.365Z,101177.96
2022-11-27T15:06:46.078Z,101184.94
2022-11-27T15:07:51.195Z,101174.48
2022-11-27T15:09:15.981Z,101177.07
2022-11-27T15:10:00.903Z,101183.13
2022-11-27T15:11:04.653Z,101179.60
2022-11-27T15:12:19.369Z,101176.17
2022-11-27T15:13:24.510Z,101178.77
2022-11-27T15:14:28.312Z,101177.90
2022-11-27T15:15:33.952Z,101177.06
2022-11-27T15:16:36.242Z,101177.08
2022-11-27T15:17:41.978Z,101179.72
2022-11-27T15:18:50.617Z,101174.52
2022-11-27T15:19:54.245Z,101173.62
2022-11-27T15:20:59.160Z,101166.69
2022-11-27T15:22:01.952Z,101180.59
2022-11-27T15:23:13.380Z,101172.78
2022-11-27T15:24:32.092Z,101178.84
2022-11-27T15:25:44.145Z,101184.05
2022-11-27T15:26:46.134Z,101177.98
2022-11-27T15:27:48.018Z,101174.52
2022-11-27T15:28:52.839Z,101171.03
2022-11-27T15:30:01.508Z,101171.05
2022-11-27T15:31:26.037Z,101171.03
2022-11-27T15:32:35.615Z,101173.66
2022-11-27T15:33:37.647Z,101175.39
2022-11-27T15:34:39.942Z,101179.75
2022-11-27T15:35:42.315Z,101180.59
2022-11-27T15:36:57.059Z,101176.23
2022-11-27T15:37:59.799Z,101177.96
2022-11-27T15:40:25.121Z,101171.08
2022-11-27T15:41:28.784Z,101178.85
2022-11-27T15:42:30.725Z,101172.78
2022-11-27T15:43:32.679Z,101168.44
2022-11-27T15:44:34.576Z,101168.44
2022-11-27T15:45:36.905Z,101177.14
2022-11-27T15:46:41.502Z,101171.95
2022-11-27T15:47:44.369Z,101177.14
2022-11-27T15:48:46.248Z,101178.00
2022-11-27T15:49:48.227Z,101160.62
2022-11-27T15:50:52.030Z,101165.84
2022-11-27T15:51:55.563Z,101172.81
2022-11-27T15:52:57.845Z,101164.98
2022-11-27T15:54:01.943Z,101169.33
2022-11-27T15:55:04.956Z,101164.12
2022-11-27T15:56:07.470Z,101178.05
2022-11-27T15:57:09.531Z,101172.84
2022-11-27T15:58:11.489Z,101173.70
2022-11-27T15:59:14.389Z,101172.82
2022-11-27T16:00:18.233Z,101169.33
2022-11-27T16:01:20.325Z,101175.45
2022-11-27T16:02:22.371Z,101171.05
2022-11-27T16:03:24.578Z,101173.67
2022-11-27T16:04:26.900Z,101178.03
2022-11-27T16:05:28.811Z,101179.77
2022-11-27T16:06:31.063Z,101168.47
2022-11-27T16:07:34.061Z,101176.29
2022-11-27T16:08:36.236Z,101176.30
2022-11-27T16:09:38.099Z,101176.29
2022-11-27T16:10:42.420Z,101178.90
2022-11-27T16:11:45.200Z,101172.81
2022-11-27T16:12:47.072Z,101174.54
2022-11-27T16:13:48.974Z,101178.04
2022-11-27T16:14:50.852Z,101176.30
2022-11-27T16:15:52.739Z,101174.56
2022-11-27T16:16:55.016Z,101175.45
2022-11-27T16:17:57.311Z,101176.30
2022-11-27T16:19:00.861Z,101178.92
2022-11-27T16:20:04.884Z,101179.77
2022-11-27T16:21:12.720Z,101166.75
2022-11-27T16:22:14.693Z,101178.05
2022-11-27T16:23:16.842Z,101172.82
2022-11-27T16:24:19.318Z,101172.82
2022-11-27T16:25:22.538Z,101184.14
2022-11-27T16:26:25.470Z,101176.33
2022-11-27T16:27:27.459Z,101178.94
2022-11-27T16:28:30.866Z,101183.25
2022-11-27T16:29:32.796Z,101180.64
2022-11-27T16:30:35.736Z,101178.92
2022-11-27T16:31:39.863Z,101178.04
2022-11-27T16:32:42.073Z,101183.27
2022-11-27T16:33:43.950Z,101179.78
2022-11-27T16:34:52.548Z,101181.53
2022-11-27T16:35:55.765Z,101181.54
2022-11-27T16:36:57.964Z,101186.74
2022-11-27T16:37:59.877Z,101188.47
2022-11-27T16:39:01.794Z,101187.61
2022-11-27T16:40:05.546Z,101187.62
2022-11-27T16:41:13.833Z,101182.41
2022-11-27T16:42:15.910Z,101189.36
2022-11-27T16:43:17.911Z,101190.21
2022-11-27T16:44:20.292Z,101184.99
2022-11-27T16:45:22.272Z,101195.42
2022-11-27T16:46:28.644Z,101194.56
2022-11-27T16:47:33.583Z,101198.03
2022-11-27T16:48:37.041Z,101197.18
2022-11-27T16:49:40.007Z,101198.91
2022-11-27T16:50:41.990Z,101206.72
2022-11-27T16:51:44.392Z,101199.80
2022-11-27T16:52:53.942Z,101203.25
2022-11-27T16:53:53.621Z,101197.17
2022-11-27T16:54:55.838Z,101196.28
2022-11-27T16:55:58.997Z,101198.05
2022-11-27T16:57:03.007Z,101193.67
2022-11-27T16:58:05.242Z,101196.30
2022-11-27T16:59:10.676Z,101191.95
2022-11-27T17:00:19.190Z,101199.75
2022-11-27T17:02:39.952Z,101194.55
2022-11-27T17:03:42.482Z,101196.28
2022-11-27T17:04:44.422Z,101205.82
2022-11-27T17:05:51.194Z,101200.62
2022-11-27T17:06:50.174Z,101196.30
2022-11-27T17:07:52.178Z,101194.55
2022-11-27T17:08:58.988Z,101197.16
2022-11-27T17:10:02.403Z,101189.33
2022-11-27T17:11:11.256Z,101197.17
2022-11-27T17:12:13.305Z,101201.48
2022-11-27T17:13:15.624Z,101200.63
2022-11-27T17:14:17.895Z,101198.04
2022-11-27T17:15:19.764Z,101200.64
2022-11-27T17:16:21.880Z,101204.99
2022-11-27T17:17:23.874Z,101201.52
2022-11-27T17:18:25.887Z,101203.25
2022-11-27T17:19:28.383Z,101196.28
2022-11-27T17:20:30.369Z,101199.78
2022-11-27T17:21:34.789Z,101200.64
2022-11-27T17:22:36.858Z,101211.05
2022-11-27T17:23:38.747Z,101204.99
2022-11-27T17:24:40.610Z,101200.64
2022-11-27T17:25:42.472Z,101199.79
2022-11-27T17:26:46.805Z,101202.38
2022-11-27T17:27:48.814Z,101203.25
2022-11-27T17:28:51.273Z,101201.50
2022-11-27T17:29:53.755Z,101203.25
2022-11-27T17:30:56.232Z,101207.61
2022-11-27T17:31:58.251Z,101211.92
2022-11-27T17:33:00.330Z,101205.81
2022-11-27T17:34:03.796Z,101200.55
2022-11-27T17:35:06.906Z,101208.42
2022-11-27T17:36:10.910Z,101203.19
2022-11-27T17:37:12.928Z,101198.91
2022-11-27T17:38:14.929Z,101203.21
2022-11-27T17:39:17.149Z,101202.33
2022-11-27T17:40:19.262Z,101201.45
2022-11-27T17:41:22.043Z,101211.03
2022-11-27T17:42:23.940Z,101206.70
2022-11-27T17:43:25.902Z,101205.83
2022-11-27T17:44:27.841Z,101201.48
2022-11-27T17:46:42.541Z,101195.42
2022-11-27T17:47:44.407Z,101204.09
2022-11-27T17:48:47.387Z,101206.69
2022-11-27T17:49:49.319Z,101205.81
2022-11-27T17:50:52.461Z,101206.70
2022-11-27T17:51:54.695Z,101208.42
2022-11-27T17:52:56.603Z,101206.70
2022-11-27T17:54:00.431Z,101205.81
2022-11-27T17:55:05.213Z,101212.78
2022-11-27T17:56:11.189Z,101211.05
2022-11-27T17:57:13.193Z,101201.52
2022-11-27T17:58:15.145Z,101203.23
2022-11-27T17:59:19.625Z,101200.64
2022-11-27T18:00:21.625Z,101205.85
2022-11-27T18:01:26.686Z,101207.61
2022-11-27T18:02:31.249Z,101199.79
2022-11-27T18:03:35.098Z,101200.65
2022-11-27T18:04:37.104Z,101210.22
2022-11-27T18:05:39.299Z,101198.89
2022-11-27T18:06:41.323Z,101202.39
2022-11-27T18:07:43.485Z,101205.86
2022-11-27T18:08:47.575Z,101213.68
2022-11-27T18:09:49.598Z,101207.61
2022-11-27T18:10:51.574Z,101198.04
2022-11-27T18:11:53.875Z,101213.67
2022-11-27T18:12:56.031Z,101213.66
2022-11-27T18:13:59.593Z,101205.01
2022-11-27T18:15:01.773Z,101210.19
2022-11-27T18:16:09.694Z,101211.91
2022-11-27T18:17:12.274Z,101205.84
2022-11-27T18:18:14.236Z,101215.42
2022-11-27T18:19:16.371Z,101211.06
2022-11-27T18:20:19.005Z,101210.22
2022-11-27T18:21:24.374Z,101205.86
2022-11-27T18:22:26.689Z,101205.01
2022-11-27T18:23:28.847Z,101202.41
2022-11-27T18:24:30.746Z,101208.48
2022-11-27T18:25:32.645Z,101205.00
2022-11-27T18:27:00.381Z,101207.63
2022-11-27T18:27:38.746Z,101201.52
2022-11-27T18:28:40.987Z,101204.12
2022-11-27T18:29:43.405Z,101211.05
2022-11-27T18:30:46.003Z,101204.99
2022-11-27T18:31:47.940Z,101207.59
2022-11-27T18:32:50.365Z,101209.33
2022-11-27T18:33:54.769Z,101211.01
2022-11-27T18:34:56.797Z,101210.19
2022-11-27T18:36:00.436Z,101204.96
2022-11-27T18:37:03.900Z,101211.92
2022-11-27T18:38:05.777Z,101209.33
2022-11-27T18:39:07.949Z,101210.17
2022-11-27T18:40:11.758Z,101208.42
2022-11-27T18:41:20.204Z,101210.17
2022-11-27T18:42:22.215Z,101212.80
2022-11-27T18:43:24.066Z,101208.42
